Kezdőlap
METAR-TAF:

METAR-TAF

Repülőterek :

South Wood County Airport (Alexander Field)

Wisconsin Rapids, Wisconsin, Amerikai Egyesült Államok

földrajzi szélesség: 44-21-33N, földrajzi hosszúság: 089-50-13W, magasság: 311 m

Jelenlegi meteorológiai megfigyelések

A jelentés 34 perccel ezelõtt készült, 09:54 UTC
Keleti szél 6 kt
Hőmérséklet -1°C
Páratartalom 86%
Légköri nyomás 1003 hPa
Látótávolság: 8.0 km
Szakadozott felhőzet 700 lábon
Párásság

METAR: KISW 090954Z AUTO 09006KT 5SM BR BKN007 M01/M03 A2963 RMK AO2 SLP045 T10111028

Idő: 04:28 (10:28 UTC)


TAF: hiányzik

Meteorológiai megfigyelések és előrejelzések több, mint 4000 repülőtéren (METAR és TAF jelentéseket).

A térképen piros és sárga pontok jelzik az elérhető meteorológiai állomásokat.

Mozgassa az egeret a pont fölött, hogy megjelenjen az állomás neve.

Azután kattintson az időjárási megfigyelések és előrejelzések megtekintéséhez.

A térkép megváltoztatása: kattintson a fekete keresztel jelölt zöld gombra ráközelítéshez, a vonallal jelölt zöld gombra távolításhoz, vagy a zöld nyilakra a szomszédos térképek eléréséhez.


METAR-TAF: